createdAt,value
2024-05-09T00:00:47.956Z,13.90
2024-05-09T00:03:36.178Z,12.82
2024-05-09T00:06:05.513Z,12.40
2024-05-09T00:08:33.731Z,14.80
2024-05-09T00:11:02.419Z,13.77
2024-05-09T00:13:30.552Z,16.67
2024-05-09T00:16:00.070Z,15.75
2024-05-09T00:18:28.329Z,13.95
2024-05-09T00:20:56.829Z,14.27
2024-05-09T00:23:25.153Z,14.38
2024-05-09T00:25:53.647Z,16.67
2024-05-09T00:28:21.825Z,16.25
2024-05-09T00:30:50.197Z,15.57
2024-05-09T00:33:18.606Z,12.55
2024-05-09T00:35:47.777Z,14.27
2024-05-09T00:38:15.881Z,12.82
2024-05-09T00:40:44.372Z,14.32
2024-05-09T00:43:14.362Z,13.80
2024-05-09T00:45:44.376Z,13.98
2024-05-09T00:48:17.740Z,13.30
2024-05-09T00:50:50.407Z,13.93
2024-05-09T00:53:19.473Z,11.98
2024-05-09T00:55:48.710Z,13.13
2024-05-09T00:58:19.030Z,11.50
2024-05-09T01:00:47.728Z,11.00
2024-05-09T01:03:16.124Z,11.85
2024-05-09T01:05:45.148Z,11.30
2024-05-09T01:08:13.974Z,10.68
2024-05-09T01:10:45.074Z,9.38
2024-05-09T01:13:15.135Z,9.43
2024-05-09T01:15:44.105Z,11.20
2024-05-09T01:18:13.566Z,13.75
2024-05-09T01:20:44.768Z,11.82
2024-05-09T01:23:16.046Z,10.60
2024-05-09T01:25:46.979Z,11.27
2024-05-09T01:28:16.549Z,11.85
2024-05-09T01:30:45.192Z,10.80
2024-05-09T01:33:13.865Z,11.68
2024-05-09T01:35:43.253Z,9.07
2024-05-09T01:38:14.017Z,8.77
2024-05-09T01:40:44.552Z,10.10
2024-05-09T01:43:12.715Z,9.13
2024-05-09T01:45:41.930Z,10.43
2024-05-09T01:48:11.006Z,11.38
2024-05-09T01:50:42.639Z,8.43
2024-05-09T01:53:13.416Z,9.73
2024-05-09T01:55:42.462Z,6.93
2024-05-09T01:58:10.810Z,9.30
2024-05-09T02:00:42.560Z,9.27
2024-05-09T02:03:16.092Z,9.48
2024-05-09T02:05:47.925Z,8.85
2024-05-09T02:08:20.663Z,9.27
2024-05-09T02:10:50.503Z,8.93
2024-05-09T02:13:19.006Z,12.20
2024-05-09T02:15:47.572Z,11.43
2024-05-09T02:18:15.810Z,11.35
2024-05-09T02:20:44.553Z,12.23
2024-05-09T02:23:13.907Z,9.93
2024-05-09T02:25:43.031Z,8.00
2024-05-09T02:28:11.194Z,9.88
2024-05-09T02:30:41.754Z,10.45
2024-05-09T02:33:13.106Z,13.27
2024-05-09T02:35:44.225Z,11.85
2024-05-09T02:38:13.611Z,9.07
2024-05-09T02:40:41.947Z,7.63
2024-05-09T02:43:13.235Z,8.85
2024-05-09T02:45:41.699Z,10.40
2024-05-09T02:48:13.411Z,8.70
2024-05-09T02:50:44.732Z,8.63
2024-05-09T02:53:14.764Z,9.82
2024-05-09T02:55:43.373Z,8.38
2024-05-09T02:58:12.500Z,14.70
2024-05-09T03:00:42.479Z,8.40
2024-05-09T03:03:14.430Z,5.85
2024-05-09T03:05:45.186Z,7.60
2024-05-09T03:08:14.281Z,5.78
2024-05-09T03:10:42.978Z,5.75
2024-05-09T03:13:15.045Z,4.15
2024-05-09T03:15:45.251Z,4.53
2024-05-09T03:18:14.166Z,4.88
2024-05-09T03:20:44.567Z,4.18
2024-05-09T03:23:13.737Z,4.37
2024-05-09T03:25:41.857Z,6.93
2024-05-09T03:28:10.436Z,6.10
2024-05-09T03:30:42.086Z,2.80
2024-05-09T03:33:14.144Z,4.55
2024-05-09T03:35:44.447Z,4.73
2024-05-09T03:38:13.095Z,3.50
2024-05-09T03:40:49.503Z,4.93
2024-05-09T03:43:19.788Z,4.65
2024-05-09T03:45:50.770Z,4.45
2024-05-09T03:48:19.519Z,4.45
2024-05-09T03:50:47.988Z,3.97
2024-05-09T03:53:17.127Z,6.32
2024-05-09T03:55:48.356Z,4.28
2024-05-09T03:58:16.946Z,6.50
2024-05-09T04:00:44.970Z,5.05
2024-05-09T04:03:13.865Z,5.35
2024-05-09T04:05:44.647Z,6.43
2024-05-09T04:08:15.787Z,4.88
2024-05-09T04:10:44.393Z,6.57
2024-05-09T04:13:12.935Z,6.15
2024-05-09T04:15:41.143Z,5.45
2024-05-09T04:18:09.803Z,5.63
2024-05-09T04:20:40.465Z,5.68
2024-05-09T04:25:45.154Z,5.65
2024-05-09T04:28:14.661Z,6.45
2024-05-09T04:30:43.356Z,4.80
2024-05-09T04:33:13.986Z,4.53
2024-05-09T04:35:44.137Z,7.07
2024-05-09T04:38:16.241Z,5.53
2024-05-09T04:40:44.947Z,4.38
2024-05-09T04:43:19.215Z,3.95
2024-05-09T04:45:47.717Z,4.25
2024-05-09T04:48:17.017Z,4.47
2024-05-09T04:50:45.393Z,5.28
2024-05-09T04:53:17.510Z,7.53
2024-05-09T04:55:46.163Z,4.72
2024-05-09T04:58:14.679Z,5.07
2024-05-09T05:00:43.964Z,5.18
2024-05-09T05:03:15.074Z,4.55
2024-05-09T05:05:46.170Z,4.47
2024-05-09T05:08:16.017Z,3.28
2024-05-09T05:10:45.344Z,3.97
2024-05-09T05:13:21.064Z,3.80
2024-05-09T05:15:53.530Z,3.60
2024-05-09T05:18:23.084Z,4.20
2024-05-09T05:20:51.777Z,1.85
2024-05-09T05:23:22.180Z,2.80
2024-05-09T05:25:53.056Z,4.18
2024-05-09T05:28:22.301Z,4.03
2024-05-09T05:30:50.781Z,2.70
2024-05-09T05:33:19.980Z,4.20
2024-05-09T05:35:48.765Z,3.03
2024-05-09T05:38:17.309Z,5.05
2024-05-09T05:40:45.507Z,2.60
2024-05-09T05:43:18.290Z,2.50
2024-05-09T05:45:46.906Z,3.75
2024-05-09T05:48:18.925Z,4.78
2024-05-09T05:50:47.386Z,2.97
2024-05-09T05:53:15.945Z,3.30
2024-05-09T05:55:44.121Z,4.35
2024-05-09T05:58:14.695Z,3.83
2024-05-09T06:00:43.348Z,4.00
2024-05-09T06:03:15.016Z,3.08
2024-05-09T06:08:17.630Z,3.25
2024-05-09T06:10:46.200Z,2.88
2024-05-09T06:13:15.890Z,6.85
2024-05-09T06:15:44.223Z,3.83
2024-05-09T06:18:13.110Z,2.28
2024-05-09T06:20:43.805Z,3.28
2024-05-09T06:23:13.281Z,1.85
2024-05-09T06:25:42.724Z,4.15
2024-05-09T06:28:11.716Z,5.43
2024-05-09T06:30:42.552Z,4.65
2024-05-09T06:35:45.045Z,2.47
2024-05-09T06:38:13.596Z,3.75
2024-05-09T06:40:43.998Z,3.50
2024-05-09T06:43:15.071Z,9.38
2024-05-09T06:45:46.202Z,2.60
2024-05-09T06:48:14.881Z,3.20
2024-05-09T06:50:43.475Z,3.50
2024-05-09T06:53:15.959Z,3.28
2024-05-09T06:55:44.674Z,4.82
2024-05-09T06:58:12.915Z,3.42
2024-05-09T07:00:42.328Z,2.65
2024-05-09T07:03:12.788Z,2.97
2024-05-09T07:05:43.040Z,4.93
2024-05-09T07:08:11.395Z,3.65
2024-05-09T07:10:40.081Z,1.73
2024-05-09T07:13:12.305Z,2.65
2024-05-09T07:15:41.981Z,2.33
2024-05-09T07:18:18.351Z,3.45
2024-05-09T07:20:49.547Z,2.42
2024-05-09T07:23:19.219Z,1.73
2024-05-09T07:25:47.937Z,3.75
2024-05-09T07:28:21.480Z,1.30
2024-05-09T07:30:50.055Z,2.03
2024-05-09T07:33:23.362Z,4.53
2024-05-09T07:35:53.526Z,1.52
2024-05-09T07:38:21.868Z,3.05
2024-05-09T07:40:50.812Z,2.28
2024-05-09T07:43:18.908Z,2.00
2024-05-09T07:45:52.885Z,1.33
2024-05-09T07:52:39.243Z,2.95
2024-05-09T07:53:49.062Z,2.67
2024-05-09T07:56:23.186Z,2.65
2024-05-09T07:58:56.442Z,3.05
2024-05-09T08:01:26.885Z,1.67
2024-05-09T08:03:56.162Z,3.95
2024-05-09T08:06:25.742Z,3.47
2024-05-09T08:08:54.362Z,3.13
2024-05-09T08:11:24.052Z,2.28
2024-05-09T08:13:52.366Z,3.00
2024-05-09T08:16:20.938Z,4.68
2024-05-09T08:18:49.918Z,3.63
2024-05-09T08:21:19.492Z,2.60
2024-05-09T08:23:47.535Z,5.43
2024-05-09T08:26:15.956Z,4.43
2024-05-09T08:28:44.099Z,2.47
2024-05-09T08:31:12.694Z,2.38
2024-05-09T08:33:54.743Z,3.60
2024-05-09T08:36:23.332Z,2.03
2024-05-09T08:38:51.397Z,2.50
2024-05-09T08:41:19.956Z,2.60
2024-05-09T08:43:48.141Z,3.00
2024-05-09T08:46:19.093Z,3.35
2024-05-09T08:48:50.392Z,3.95
2024-05-09T08:51:18.993Z,4.35
2024-05-09T08:53:46.989Z,2.38
2024-05-09T08:56:16.969Z,4.43
2024-05-09T08:58:46.102Z,2.78
2024-05-09T09:01:15.199Z,2.72
2024-05-09T09:03:45.583Z,5.18
2024-05-09T09:06:16.885Z,3.80
2024-05-09T09:08:46.982Z,5.13
2024-05-09T09:11:15.580Z,2.90
2024-05-09T09:13:43.643Z,3.50
2024-05-09T09:16:13.039Z,1.90
2024-05-09T09:18:46.535Z,2.40
2024-05-09T09:21:15.261Z,2.47
2024-05-09T09:23:44.193Z,4.50
2024-05-09T09:26:16.885Z,3.22
2024-05-09T09:28:45.392Z,3.42
2024-05-09T09:31:19.063Z,1.77
2024-05-09T09:33:47.989Z,4.95
2024-05-09T09:36:18.648Z,2.08
2024-05-09T09:38:48.587Z,2.43
2024-05-09T09:41:20.102Z,5.13
2024-05-09T09:46:18.177Z,2.30
2024-05-09T09:48:47.799Z,2.95
2024-05-09T09:51:16.999Z,3.22
2024-05-09T09:53:46.464Z,4.68
2024-05-09T09:56:18.222Z,3.78
2024-05-09T09:58:47.416Z,4.18
2024-05-09T10:01:16.047Z,2.35
2024-05-09T10:03:45.777Z,2.30
2024-05-09T10:06:16.204Z,3.88
2024-05-09T10:08:47.419Z,1.58
2024-05-09T10:11:21.335Z,3.22
2024-05-09T10:13:53.972Z,3.58
2024-05-09T10:16:23.278Z,2.03
2024-05-09T10:18:51.558Z,1.98
2024-05-09T10:21:20.839Z,3.10
2024-05-09T10:23:59.069Z,4.32
2024-05-09T10:26:38.023Z,2.38
2024-05-09T10:29:19.762Z,3.20
2024-05-09T10:31:48.732Z,5.60
2024-05-09T10:34:21.279Z,2.90
2024-05-09T10:36:56.395Z,3.10
2024-05-09T10:39:26.513Z,4.13
2024-05-09T10:41:55.095Z,2.67
2024-05-09T10:44:23.118Z,4.05
2024-05-09T10:46:54.734Z,6.80
2024-05-09T10:49:23.424Z,3.92
2024-05-09T10:51:53.308Z,2.65
2024-05-09T10:54:21.557Z,1.92
2024-05-09T10:56:57.884Z,3.22
2024-05-09T10:59:26.298Z,2.50
2024-05-09T11:01:54.959Z,2.45
2024-05-09T11:04:23.215Z,4.38
2024-05-09T11:06:51.849Z,1.25
2024-05-09T11:09:20.471Z,2.72
2024-05-09T11:11:48.985Z,1.48
2024-05-09T11:14:17.623Z,1.85
2024-05-09T11:16:46.118Z,2.13
2024-05-09T11:19:14.913Z,1.80
2024-05-09T11:21:43.676Z,1.85
2024-05-09T11:24:12.389Z,4.45
2024-05-09T11:26:40.872Z,3.88
2024-05-09T11:29:08.997Z,3.75
2024-05-09T11:31:50.018Z,3.78
2024-05-09T11:34:18.238Z,2.03
2024-05-09T11:36:46.888Z,2.85
2024-05-09T11:39:15.102Z,3.85
2024-05-09T11:41:43.544Z,1.95
2024-05-09T11:44:11.715Z,3.45
2024-05-09T11:46:40.264Z,3.72
2024-05-09T11:49:10.225Z,2.53
2024-05-09T11:51:38.960Z,3.33
2024-05-09T11:54:06.984Z,3.83
2024-05-09T11:56:35.720Z,6.78
2024-05-09T11:59:04.291Z,2.50
2024-05-09T12:01:33.027Z,3.40
2024-05-09T12:04:02.446Z,2.45
2024-05-09T12:06:31.310Z,2.88
2024-05-09T12:08:59.433Z,5.45
2024-05-09T12:11:28.013Z,1.25
2024-05-09T12:13:56.106Z,3.85
2024-05-09T12:16:25.154Z,1.77
2024-05-09T12:18:53.432Z,2.85
2024-05-09T12:21:21.976Z,2.83
2024-05-09T12:23:50.021Z,3.58
2024-05-09T12:26:18.470Z,4.95
2024-05-09T12:28:46.633Z,3.13
2024-05-09T12:31:15.141Z,2.95
2024-05-09T12:33:43.273Z,4.88
2024-05-09T12:36:11.808Z,3.40
2024-05-09T12:38:41.230Z,2.05
2024-05-09T12:41:10.646Z,4.10
2024-05-09T12:43:38.779Z,5.00
2024-05-09T12:46:07.382Z,2.22
2024-05-09T12:48:35.627Z,3.60
2024-05-09T12:51:04.475Z,10.55
2024-05-09T12:53:32.705Z,4.97
2024-05-09T12:56:03.110Z,3.97
2024-05-09T12:58:32.706Z,4.00
2024-05-09T13:01:01.403Z,4.55
2024-05-09T13:03:29.752Z,3.67
2024-05-09T13:05:58.857Z,4.90
2024-05-09T13:08:27.346Z,3.00
2024-05-09T13:10:55.913Z,7.00
2024-05-09T13:13:24.150Z,4.80
2024-05-09T13:15:52.909Z,6.63
2024-05-09T13:18:21.243Z,3.95
2024-05-09T13:20:49.683Z,3.70
2024-05-09T13:23:17.781Z,5.13
2024-05-09T13:25:46.486Z,5.95
2024-05-09T13:28:14.710Z,6.35
2024-05-09T13:30:43.214Z,7.47
2024-05-09T13:33:12.971Z,3.58
2024-05-09T13:35:49.416Z,3.42
2024-05-09T13:38:21.117Z,5.80
2024-05-09T13:40:50.800Z,6.57
2024-05-09T13:43:19.398Z,3.10
2024-05-09T13:45:47.825Z,14.35
2024-05-09T13:48:16.656Z,4.65
2024-05-09T13:50:44.839Z,7.85
2024-05-09T13:53:13.531Z,4.75
2024-05-09T13:55:41.579Z,4.00
2024-05-09T13:58:10.346Z,5.95
2024-05-09T14:00:46.279Z,4.38
2024-05-09T14:03:20.270Z,6.55
2024-05-09T14:05:51.229Z,5.30
2024-05-09T14:08:22.574Z,5.63
2024-05-09T14:10:51.397Z,5.28
2024-05-09T14:13:20.693Z,7.85
2024-05-09T14:15:49.375Z,10.40
2024-05-09T14:18:18.519Z,7.65
2024-05-09T14:20:46.671Z,4.65
2024-05-09T14:23:15.651Z,2.55
2024-05-09T14:25:45.032Z,4.38
2024-05-09T14:28:14.625Z,5.82
2024-05-09T14:30:43.097Z,6.03
2024-05-09T14:33:12.471Z,7.90
2024-05-09T14:35:40.560Z,8.80
2024-05-09T14:38:10.157Z,6.35
2024-05-09T14:40:42.714Z,6.88
2024-05-09T14:43:14.634Z,8.13
2024-05-09T14:45:44.168Z,8.52
2024-05-09T14:48:15.162Z,7.32
2024-05-09T14:50:43.983Z,6.40
2024-05-09T14:53:13.879Z,8.60
2024-05-09T14:55:43.556Z,3.85
2024-05-09T14:58:13.594Z,9.57
2024-05-09T15:00:46.918Z,7.22
2024-05-09T15:03:20.443Z,6.97
2024-05-09T15:05:49.549Z,7.93
2024-05-09T15:08:19.835Z,6.00
2024-05-09T15:10:50.418Z,8.38
2024-05-09T15:13:20.210Z,7.13
2024-05-09T15:15:48.842Z,12.07
2024-05-09T15:18:18.570Z,9.48
2024-05-09T15:20:47.125Z,5.90
2024-05-09T15:23:15.750Z,12.30
2024-05-09T15:25:44.970Z,10.38
2024-05-09T15:28:13.843Z,5.63
2024-05-09T15:30:46.118Z,14.02
2024-05-09T15:33:16.036Z,7.50
2024-05-09T15:35:46.488Z,14.82
2024-05-09T15:38:16.439Z,11.52
2024-05-09T15:40:44.789Z,7.40
2024-05-09T15:43:13.593Z,12.15
2024-05-09T15:45:42.045Z,9.85
2024-05-09T15:48:11.896Z,13.27
2024-05-09T15:50:42.094Z,5.90
2024-05-09T15:53:13.638Z,9.77
2024-05-09T15:55:43.220Z,9.45
2024-05-09T15:58:12.742Z,4.65
2024-05-09T16:00:44.871Z,8.45
2024-05-09T16:03:15.305Z,6.97
2024-05-09T16:05:46.573Z,7.05
2024-05-09T16:08:16.116Z,4.18
2024-05-09T16:10:46.283Z,3.83
2024-05-09T16:13:17.320Z,4.63
2024-05-09T16:15:46.715Z,4.97
2024-05-09T16:18:15.594Z,3.97
2024-05-09T16:20:45.511Z,5.15
2024-05-09T16:23:15.696Z,2.42
2024-05-09T16:25:46.335Z,2.50
2024-05-09T16:28:15.056Z,5.32
2024-05-09T16:30:43.245Z,5.82
2024-05-09T16:33:12.456Z,5.97
2024-05-09T16:35:40.949Z,7.50
2024-05-09T16:38:09.468Z,5.90
2024-05-09T16:40:40.535Z,4.13
2024-05-09T16:43:11.084Z,4.57
2024-05-09T16:45:45.045Z,7.57
2024-05-09T16:48:14.696Z,5.20
2024-05-09T16:50:43.221Z,6.78
2024-05-09T16:53:11.897Z,5.85
2024-05-09T16:55:40.215Z,4.38
2024-05-09T16:58:08.989Z,5.40
2024-05-09T17:00:41.956Z,8.52
2024-05-09T17:03:15.656Z,7.32
2024-05-09T17:05:48.696Z,4.55
2024-05-09T17:08:21.013Z,6.28
2024-05-09T17:13:19.671Z,4.95
2024-05-09T17:15:48.823Z,6.18
2024-05-09T17:18:17.603Z,5.07
2024-05-09T17:20:45.702Z,4.47
2024-05-09T17:23:14.729Z,8.60
2024-05-09T17:25:43.387Z,4.65
2024-05-09T17:28:12.403Z,5.68
2024-05-09T17:30:42.101Z,7.88
2024-05-09T17:33:12.581Z,3.85
2024-05-09T17:35:41.782Z,6.85
2024-05-09T17:38:10.321Z,6.43
2024-05-09T17:40:39.262Z,7.32
2024-05-09T17:43:10.299Z,4.90
2024-05-09T17:45:40.886Z,4.20
2024-05-09T17:48:12.159Z,6.35
2024-05-09T17:50:41.936Z,6.32
2024-05-09T17:53:11.232Z,6.43
2024-05-09T17:55:40.707Z,3.63
2024-05-09T17:58:10.295Z,4.85
2024-05-09T18:00:41.384Z,4.13
2024-05-09T18:03:12.520Z,4.18
2024-05-09T18:05:42.866Z,4.18
2024-05-09T18:08:12.984Z,3.30
2024-05-09T18:10:42.347Z,3.85
2024-05-09T18:13:14.638Z,6.28
2024-05-09T18:18:12.573Z,9.85
2024-05-09T18:20:44.768Z,4.90
2024-05-09T18:23:17.255Z,4.57
2024-05-09T18:25:47.846Z,3.00
2024-05-09T18:28:17.484Z,3.42
2024-05-09T18:30:46.103Z,6.63
2024-05-09T18:33:15.179Z,3.90
2024-05-09T18:35:52.709Z,4.20
2024-05-09T18:38:25.742Z,6.00
2024-05-09T18:40:54.961Z,6.60
2024-05-09T18:43:28.921Z,5.20
2024-05-09T18:46:04.740Z,5.28
2024-05-09T18:48:33.234Z,5.55
2024-05-09T18:51:02.181Z,10.90
2024-05-09T18:53:30.820Z,4.47
2024-05-09T18:55:59.048Z,6.38
2024-05-09T18:58:27.472Z,6.35
2024-05-09T19:00:58.414Z,5.20
2024-05-09T19:03:28.512Z,4.07
2024-05-09T19:05:56.844Z,6.95
2024-05-09T19:08:25.332Z,8.30
2024-05-09T19:10:53.619Z,5.82
2024-05-09T19:13:22.305Z,5.95
2024-05-09T19:15:50.488Z,5.22
2024-05-09T19:18:19.113Z,5.07
2024-05-09T19:20:47.368Z,3.60
2024-05-09T19:23:15.972Z,4.60
2024-05-09T19:25:44.036Z,7.05
2024-05-09T19:28:12.759Z,4.00
2024-05-09T19:30:42.588Z,4.55
2024-05-09T19:33:13.417Z,7.00
2024-05-09T19:35:43.804Z,4.80
2024-05-09T19:38:12.935Z,7.40
2024-05-09T19:40:41.311Z,6.15
2024-05-09T19:43:10.562Z,5.32
2024-05-09T19:45:39.170Z,5.43
2024-05-09T19:48:08.473Z,5.40
2024-05-09T19:50:42.222Z,7.28
2024-05-09T19:53:14.657Z,4.07
2024-05-09T19:55:43.379Z,8.38
2024-05-09T19:58:12.867Z,5.90
2024-05-09T20:00:43.302Z,4.57
2024-05-09T20:03:16.050Z,6.65
2024-05-09T20:05:46.978Z,3.83
2024-05-09T20:08:15.966Z,6.03
2024-05-09T20:10:44.263Z,9.35
2024-05-09T20:13:13.962Z,5.38
2024-05-09T20:15:42.276Z,3.90
2024-05-09T20:18:11.226Z,4.93
2024-05-09T20:20:42.718Z,7.35
2024-05-09T20:23:13.782Z,5.30
2024-05-09T20:25:42.657Z,8.23
2024-05-09T20:28:11.476Z,12.00
2024-05-09T20:30:39.706Z,10.57
2024-05-09T20:33:09.480Z,10.52
2024-05-09T20:35:38.302Z,7.38
2024-05-09T20:38:06.862Z,9.00
2024-05-09T20:40:37.993Z,7.45
2024-05-09T20:43:10.234Z,9.15
2024-05-09T20:45:39.358Z,6.20
2024-05-09T20:48:09.190Z,6.53
2024-05-09T20:50:40.858Z,6.43
2024-05-09T20:53:15.345Z,5.93
2024-05-09T20:55:45.306Z,5.00
2024-05-09T20:58:14.537Z,4.90
2024-05-09T21:00:45.170Z,5.90
2024-05-09T21:03:16.839Z,6.47
2024-05-09T21:05:46.793Z,7.38
2024-05-09T21:08:15.967Z,6.75
2024-05-09T21:10:44.278Z,5.35
2024-05-09T21:13:13.141Z,7.40
2024-05-09T21:15:41.547Z,5.00
2024-05-09T21:18:10.146Z,4.38
2024-05-09T21:20:38.297Z,7.28
2024-05-09T21:23:06.797Z,10.50
2024-05-09T21:25:35.125Z,6.07
2024-05-09T21:28:03.757Z,5.30
2024-05-09T21:30:40.359Z,6.07
2024-05-09T21:33:14.134Z,5.53
2024-05-09T21:35:46.337Z,4.50
2024-05-09T21:38:16.438Z,6.88
2024-05-09T21:40:45.336Z,5.97
2024-05-09T21:43:14.659Z,6.05
2024-05-09T21:45:43.037Z,6.20
2024-05-09T21:48:13.693Z,7.68
2024-05-09T21:50:42.598Z,7.97
2024-05-09T21:53:13.295Z,6.18
2024-05-09T21:55:45.362Z,4.13
2024-05-09T21:58:17.100Z,6.80
2024-05-09T22:00:46.606Z,8.18
2024-05-09T22:03:15.690Z,6.50
2024-05-09T22:05:45.170Z,6.70
2024-05-09T22:08:14.014Z,9.23
2024-05-09T22:10:42.469Z,7.75
2024-05-09T22:13:11.427Z,6.88
2024-05-09T22:15:40.827Z,4.50
2024-05-09T22:18:11.406Z,5.95
2024-05-09T22:20:45.411Z,6.55
2024-05-09T22:23:15.922Z,10.35
2024-05-09T22:25:44.326Z,7.63
2024-05-09T22:28:15.733Z,6.03
2024-05-09T22:30:46.516Z,7.80
2024-05-09T22:33:16.080Z,6.78
2024-05-09T22:35:44.396Z,6.80
2024-05-09T22:38:13.106Z,7.03
2024-05-09T22:40:47.422Z,7.85
2024-05-09T22:43:23.471Z,5.38
2024-05-09T22:45:55.110Z,4.90
2024-05-09T22:48:25.464Z,7.80
2024-05-09T22:50:54.949Z,6.60
2024-05-09T22:53:25.444Z,6.82
2024-05-09T22:55:54.610Z,6.70
2024-05-09T22:58:24.327Z,6.20
2024-05-09T23:00:53.071Z,5.55
2024-05-09T23:03:22.929Z,6.18
2024-05-09T23:05:52.527Z,5.28
2024-05-09T23:08:21.105Z,5.28
2024-05-09T23:10:49.160Z,5.95
2024-05-09T23:13:17.757Z,7.20
2024-05-09T23:15:45.819Z,7.55
2024-05-09T23:18:14.469Z,5.38
2024-05-09T23:20:42.583Z,6.30
2024-05-09T23:23:11.980Z,4.82
2024-05-09T23:25:44.524Z,6.55
2024-05-09T23:28:13.366Z,7.20
2024-05-09T23:30:42.347Z,3.78
2024-05-09T23:33:12.891Z,5.68
2024-05-09T23:35:42.584Z,6.45
2024-05-09T23:38:11.287Z,7.05
2024-05-09T23:40:41.211Z,5.30
2024-05-09T23:43:12.308Z,5.82
2024-05-09T23:45:41.784Z,6.75
2024-05-09T23:48:11.433Z,5.22
2024-05-09T23:50:40.734Z,4.57
2024-05-09T23:53:10.766Z,5.75
2024-05-09T23:55:39.681Z,4.03
2024-05-09T23:58:09.804Z,4.40
